sensor_id;sensor_type;location;lat;lon;timestamp;pressure;altitude;pressure_sealevel;temperature;humidity
26697;BME280;14312;52.614;13.496;2023-04-19T00:00:05;102115.75;;;9.67;59.14
26697;BME280;14312;52.614;13.496;2023-04-19T00:02:54;102119.06;;;9.69;59.15
26697;BME280;14312;52.614;13.496;2023-04-19T00:05:40;102117.03;;;9.71;58.69
26697;BME280;14312;52.614;13.496;2023-04-19T00:08:27;102120.53;;;9.72;58.59
26697;BME280;14312;52.614;13.496;2023-04-19T00:11:13;102111.72;;;9.71;58.89
26697;BME280;14312;52.614;13.496;2023-04-19T00:13:59;102104.56;;;9.72;58.54
26697;BME280;14312;52.614;13.496;2023-04-19T00:16:44;102105.97;;;9.74;58.42
26697;BME280;14312;52.614;13.496;2023-04-19T00:19:30;102095.31;;;9.74;58.39
26697;BME280;14312;52.614;13.496;2023-04-19T00:22:16;102099.81;;;9.74;58.30
26697;BME280;14312;52.614;13.496;2023-04-19T00:25:02;102099.00;;;9.73;57.96
26697;BME280;14312;52.614;13.496;2023-04-19T00:27:48;102089.41;;;9.72;57.97
26697;BME280;14312;52.614;13.496;2023-04-19T00:30:35;102095.75;;;9.71;57.76
26697;BME280;14312;52.614;13.496;2023-04-19T00:33:20;102091.44;;;9.70;57.70
26697;BME280;14312;52.614;13.496;2023-04-19T00:36:07;102091.81;;;9.67;57.89
26697;BME280;14312;52.614;13.496;2023-04-19T00:38:53;102089.56;;;9.64;57.47
26697;BME280;14312;52.614;13.496;2023-04-19T00:41:39;102096.09;;;9.62;57.68
26697;BME280;14312;52.614;13.496;2023-04-19T00:44:25;102094.84;;;9.58;57.67
26697;BME280;14312;52.614;13.496;2023-04-19T00:47:12;102096.88;;;9.56;57.49
26697;BME280;14312;52.614;13.496;2023-04-19T00:49:58;102093.19;;;9.50;57.41
26697;BME280;14312;52.614;13.496;2023-04-19T00:52:45;102091.91;;;9.46;57.17
26697;BME280;14312;52.614;13.496;2023-04-19T00:55:31;102097.00;;;9.41;57.03
26697;BME280;14312;52.614;13.496;2023-04-19T00:58:17;102094.31;;;9.34;57.36
26697;BME280;14312;52.614;13.496;2023-04-19T01:01:03;102096.75;;;9.29;57.13
26697;BME280;14312;52.614;13.496;2023-04-19T01:03:50;102099.97;;;9.25;57.44
26697;BME280;14312;52.614;13.496;2023-04-19T01:06:37;102093.78;;;9.18;56.91
26697;BME280;14312;52.614;13.496;2023-04-19T01:09:25;102101.53;;;9.13;57.08
26697;BME280;14312;52.614;13.496;2023-04-19T01:12:10;102097.00;;;9.07;57.38
26697;BME280;14312;52.614;13.496;2023-04-19T01:14:56;102092.44;;;9.00;57.26
26697;BME280;14312;52.614;13.496;2023-04-19T01:17:42;102087.91;;;8.94;57.26
26697;BME280;14312;52.614;13.496;2023-04-19T01:20:28;102085.41;;;8.86;57.43
26697;BME280;14312;52.614;13.496;2023-04-19T01:23:14;102090.44;;;8.81;57.33
26697;BME280;14312;52.614;13.496;2023-04-19T01:26:01;102086.53;;;8.77;57.37
26697;BME280;14312;52.614;13.496;2023-04-19T01:28:47;102083.63;;;8.72;57.37
26697;BME280;14312;52.614;13.496;2023-04-19T01:31:33;102088.69;;;8.67;57.41
26697;BME280;14312;52.614;13.496;2023-04-19T01:34:19;102079.47;;;8.63;57.56
26697;BME280;14312;52.614;13.496;2023-04-19T01:37:07;102078.22;;;8.59;57.72
26697;BME280;14312;52.614;13.496;2023-04-19T01:39:54;102082.25;;;8.55;57.65
26697;BME280;14312;52.614;13.496;2023-04-19T01:42:40;102076.50;;;8.51;57.76
26697;BME280;14312;52.614;13.496;2023-04-19T01:45:26;102078.53;;;8.49;57.50
26697;BME280;14312;52.614;13.496;2023-04-19T01:48:12;102077.47;;;8.44;57.48
26697;BME280;14312;52.614;13.496;2023-04-19T01:50:57;102069.88;;;8.41;57.62
26697;BME280;14312;52.614;13.496;2023-04-19T01:53:43;102064.94;;;8.38;57.52
26697;BME280;14312;52.614;13.496;2023-04-19T01:56:29;102064.50;;;8.34;57.81
26697;BME280;14312;52.614;13.496;2023-04-19T01:59:16;102062.38;;;8.30;57.50
26697;BME280;14312;52.614;13.496;2023-04-19T02:02:05;102060.72;;;8.29;57.86
26697;BME280;14312;52.614;13.496;2023-04-19T02:04:51;102062.09;;;8.24;57.77
26697;BME280;14312;52.614;13.496;2023-04-19T02:07:37;102060.50;;;8.23;57.82
26697;BME280;14312;52.614;13.496;2023-04-19T02:10:23;102054.53;;;8.21;57.61
26697;BME280;14312;52.614;13.496;2023-04-19T02:13:09;102058.56;;;8.17;57.77
26697;BME280;14312;52.614;13.496;2023-04-19T02:15:55;102054.28;;;8.16;57.65
26697;BME280;14312;52.614;13.496;2023-04-19T02:18:41;102044.03;;;8.13;57.81
26697;BME280;14312;52.614;13.496;2023-04-19T02:21:27;102047.06;;;8.10;57.54
26697;BME280;14312;52.614;13.496;2023-04-19T02:24:13;102049.91;;;8.09;57.64
26697;BME280;14312;52.614;13.496;2023-04-19T02:26:59;102044.97;;;8.06;57.95
26697;BME280;14312;52.614;13.496;2023-04-19T02:29:46;102051.47;;;8.03;57.68
26697;BME280;14312;52.614;13.496;2023-04-19T02:32:32;102046.56;;;8.00;57.88
26697;BME280;14312;52.614;13.496;2023-04-19T02:35:18;102040.78;;;7.97;58.05
26697;BME280;14312;52.614;13.496;2023-04-19T02:38:04;102036.69;;;7.94;57.84
26697;BME280;14312;52.614;13.496;2023-04-19T02:40:50;102022.13;;;7.90;57.85
26697;BME280;14312;52.614;13.496;2023-04-19T02:43:36;102033.16;;;7.87;58.07
26697;BME280;14312;52.614;13.496;2023-04-19T02:46:22;102038.81;;;7.84;58.18
26697;BME280;14312;52.614;13.496;2023-04-19T02:49:08;102024.28;;;7.80;58.29
26697;BME280;14312;52.614;13.496;2023-04-19T02:51:54;102028.31;;;7.76;58.34
26697;BME280;14312;52.614;13.496;2023-04-19T02:54:40;102013.59;;;7.73;58.12
26697;BME280;14312;52.614;13.496;2023-04-19T02:57:26;102010.50;;;7.70;58.26
26697;BME280;14312;52.614;13.496;2023-04-19T03:00:12;102011.66;;;7.67;58.56
26697;BME280;14312;52.614;13.496;2023-04-19T03:02:58;102013.72;;;7.65;58.57
26697;BME280;14312;52.614;13.496;2023-04-19T03:05:45;102005.28;;;7.62;58.38
26697;BME280;14312;52.614;13.496;2023-04-19T03:08:31;102006.50;;;7.59;58.40
26697;BME280;14312;52.614;13.496;2023-04-19T03:11:17;101995.44;;;7.56;58.65
26697;BME280;14312;52.614;13.496;2023-04-19T03:14:03;101989.31;;;7.55;58.54
26697;BME280;14312;52.614;13.496;2023-04-19T03:16:49;101994.78;;;7.54;58.86
26697;BME280;14312;52.614;13.496;2023-04-19T03:19:35;101999.47;;;7.52;58.55
26697;BME280;14312;52.614;13.496;2023-04-19T03:22:21;101992.53;;;7.51;58.98
26697;BME280;14312;52.614;13.496;2023-04-19T03:25:07;101987.56;;;7.47;58.97
26697;BME280;14312;52.614;13.496;2023-04-19T03:27:57;101985.09;;;7.46;58.76
26697;BME280;14312;52.614;13.496;2023-04-19T03:30:43;101975.72;;;7.43;59.09
26697;BME280;14312;52.614;13.496;2023-04-19T03:33:29;101981.00;;;7.43;58.77
26697;BME280;14312;52.614;13.496;2023-04-19T03:36:15;101986.69;;;7.40;58.69
26697;BME280;14312;52.614;13.496;2023-04-19T03:39:04;101985.03;;;7.39;59.12
26697;BME280;14312;52.614;13.496;2023-04-19T03:41:50;101986.41;;;7.35;59.04
26697;BME280;14312;52.614;13.496;2023-04-19T03:44:36;101987.81;;;7.31;58.86
26697;BME280;14312;52.614;13.496;2023-04-19T03:47:22;101983.88;;;7.27;58.97
26697;BME280;14312;52.614;13.496;2023-04-19T03:50:09;101974.66;;;7.23;59.11
26697;BME280;14312;52.614;13.496;2023-04-19T03:52:55;101975.00;;;7.20;59.29
26697;BME280;14312;52.614;13.496;2023-04-19T03:55:41;101974.56;;;7.17;59.27
26697;BME280;14312;52.614;13.496;2023-04-19T03:58:27;101976.75;;;7.13;59.13
26697;BME280;14312;52.614;13.496;2023-04-19T04:01:19;101965.72;;;7.10;59.40
26697;BME280;14312;52.614;13.496;2023-04-19T04:04:05;101967.88;;;7.06;59.52
26697;BME280;14312;52.614;13.496;2023-04-19T04:06:51;101971.94;;;7.02;59.29
26697;BME280;14312;52.614;13.496;2023-04-19T04:09:37;101967.81;;;6.99;59.60
26697;BME280;14312;52.614;13.496;2023-04-19T04:12:23;101970.81;;;6.96;59.78
26697;BME280;14312;52.614;13.496;2023-04-19T04:15:09;101962.41;;;6.93;59.65
26697;BME280;14312;52.614;13.496;2023-04-19T04:17:55;101957.47;;;6.90;59.72
26697;BME280;14312;52.614;13.496;2023-04-19T04:20:42;101962.75;;;6.90;59.96
26697;BME280;14312;52.614;13.496;2023-04-19T04:23:28;101953.38;;;6.87;60.15
26697;BME280;14312;52.614;13.496;2023-04-19T04:26:14;101953.56;;;6.86;60.38
26697;BME280;14312;52.614;13.496;2023-04-19T04:29:00;101950.91;;;6.86;60.32
26697;BME280;14312;52.614;13.496;2023-04-19T04:31:49;101959.84;;;6.85;60.35
26697;BME280;14312;52.614;13.496;2023-04-19T04:34:36;101940.31;;;6.86;60.69
26697;BME280;14312;52.614;13.496;2023-04-19T04:37:22;101942.31;;;6.84;60.46
26697;BME280;14312;52.614;13.496;2023-04-19T04:40:09;101952.56;;;6.87;60.81
26697;BME280;14312;52.614;13.496;2023-04-19T04:42:56;101947.06;;;6.88;60.77
26697;BME280;14312;52.614;13.496;2023-04-19T04:45:42;101941.56;;;6.90;60.98
26697;BME280;14312;52.614;13.496;2023-04-19T04:48:29;101944.88;;;6.92;60.95
26697;BME280;14312;52.614;13.496;2023-04-19T04:51:16;101937.56;;;6.94;61.11
26697;BME280;14312;52.614;13.496;2023-04-19T04:54:02;101939.22;;;6.95;61.10
26697;BME280;14312;52.614;13.496;2023-04-19T04:56:49;101933.53;;;6.98;61.46
26697;BME280;14312;52.614;13.496;2023-04-19T04:59:35;101934.34;;;6.98;61.08
26697;BME280;14312;52.614;13.496;2023-04-19T05:02:22;101924.22;;;7.02;61.50
26697;BME280;14312;52.614;13.496;2023-04-19T05:05:08;101934.44;;;7.05;61.56
26697;BME280;14312;52.614;13.496;2023-04-19T05:07:55;101932.44;;;7.07;61.39
26697;BME280;14312;52.614;13.496;2023-04-19T05:10:41;101928.41;;;7.11;61.42
26697;BME280;14312;52.614;13.496;2023-04-19T05:13:27;101922.75;;;7.14;61.71
26697;BME280;14312;52.614;13.496;2023-04-19T05:16:13;101924.00;;;7.18;61.55
26697;BME280;14312;52.614;13.496;2023-04-19T05:18:59;101926.94;;;7.23;61.46
26697;BME280;14312;52.614;13.496;2023-04-19T05:21:46;101926.53;;;7.26;61.64
26697;BME280;14312;52.614;13.496;2023-04-19T05:24:32;101922.53;;;7.30;61.86
26697;BME280;14312;52.614;13.496;2023-04-19T05:27:18;101920.13;;;7.35;62.00
26697;BME280;14312;52.614;13.496;2023-04-19T05:30:05;101916.09;;;7.39;62.01
26697;BME280;14312;52.614;13.496;2023-04-19T05:32:52;101919.63;;;7.46;61.85
26697;BME280;14312;52.614;13.496;2023-04-19T05:35:38;101911.13;;;7.51;61.83
26697;BME280;14312;52.614;13.496;2023-04-19T05:38:24;101913.66;;;7.59;61.88
26697;BME280;14312;52.614;13.496;2023-04-19T05:41:10;101903.13;;;7.66;61.96
26697;BME280;14312;52.614;13.496;2023-04-19T05:43:56;101910.97;;;7.74;62.24
26697;BME280;14312;52.614;13.496;2023-04-19T05:46:42;101902.66;;;7.83;62.41
26697;BME280;14312;52.614;13.496;2023-04-19T05:49:28;101912.97;;;7.93;62.19
26697;BME280;14312;52.614;13.496;2023-04-19T05:52:14;101908.13;;;8.03;62.04
26697;BME280;14312;52.614;13.496;2023-04-19T05:55:00;101906.34;;;8.10;62.07
26697;BME280;14312;52.614;13.496;2023-04-19T05:57:46;101907.88;;;8.19;62.10
26697;BME280;14312;52.614;13.496;2023-04-19T06:00:32;101917.34;;;8.29;62.07
26697;BME280;14312;52.614;13.496;2023-04-19T06:03:18;101919.88;;;8.37;62.02
26697;BME280;14312;52.614;13.496;2023-04-19T06:06:04;101916.03;;;8.46;61.96
26697;BME280;14312;52.614;13.496;2023-04-19T06:08:51;101919.19;;;8.56;61.93
26697;BME280;14312;52.614;13.496;2023-04-19T06:11:37;101914.75;;;8.63;61.85
26697;BME280;14312;52.614;13.496;2023-04-19T06:14:23;101921.75;;;8.71;61.91
26697;BME280;14312;52.614;13.496;2023-04-19T06:17:09;101912.38;;;8.81;61.81
26697;BME280;14312;52.614;13.496;2023-04-19T06:19:55;101910.38;;;8.90;61.64
26697;BME280;14312;52.614;13.496;2023-04-19T06:22:44;101909.00;;;9.00;61.40
26697;BME280;14312;52.614;13.496;2023-04-19T06:25:30;101907.81;;;9.10;61.79
26697;BME280;14312;52.614;13.496;2023-04-19T06:28:16;101910.94;;;9.20;61.94
26697;BME280;14312;52.614;13.496;2023-04-19T06:31:02;101911.97;;;9.32;61.79
26697;BME280;14312;52.614;13.496;2023-04-19T06:33:48;101904.44;;;9.42;61.39
26697;BME280;14312;52.614;13.496;2023-04-19T06:36:34;101897.50;;;9.54;61.54
26697;BME280;14312;52.614;13.496;2023-04-19T06:39:20;101894.28;;;9.65;61.15
26697;BME280;14312;52.614;13.496;2023-04-19T06:42:06;101885.66;;;9.76;61.03
26697;BME280;14312;52.614;13.496;2023-04-19T06:44:54;101886.09;;;9.87;60.90
26697;BME280;14312;52.614;13.496;2023-04-19T06:47:41;101886.50;;;9.97;60.61
26697;BME280;14312;52.614;13.496;2023-04-19T06:50:27;101882.63;;;10.06;60.60
26697;BME280;14312;52.614;13.496;2023-04-19T06:53:14;101869.69;;;10.16;60.55
26697;BME280;14312;52.614;13.496;2023-04-19T06:56:01;101870.13;;;10.26;60.62
26697;BME280;14312;52.614;13.496;2023-04-19T06:58:48;101862.75;;;10.35;60.42
26697;BME280;14312;52.614;13.496;2023-04-19T07:01:34;101852.03;;;10.48;60.03
26697;BME280;14312;52.614;13.496;2023-04-19T07:04:20;101855.09;;;10.58;59.95
26697;BME280;14312;52.614;13.496;2023-04-19T07:07:06;101856.72;;;10.66;59.41
26697;BME280;14312;52.614;13.496;2023-04-19T07:09:52;101851.13;;;10.74;59.16
26697;BME280;14312;52.614;13.496;2023-04-19T07:12:38;101855.66;;;10.80;59.06
26697;BME280;14312;52.614;13.496;2023-04-19T07:15:24;101841.84;;;10.89;59.05
26697;BME280;14312;52.614;13.496;2023-04-19T07:18:10;101835.47;;;10.97;58.71
26697;BME280;14312;52.614;13.496;2023-04-19T07:20:56;101825.56;;;11.04;58.48
26697;BME280;14312;52.614;13.496;2023-04-19T07:23:42;101833.69;;;11.16;58.42
26697;BME280;14312;52.614;13.496;2023-04-19T07:26:28;101829.97;;;11.23;58.21
26697;BME280;14312;52.614;13.496;2023-04-19T07:29:14;101828.69;;;11.32;57.93
26697;BME280;14312;52.614;13.496;2023-04-19T07:32:00;101822.88;;;11.42;57.99
26697;BME280;14312;52.614;13.496;2023-04-19T07:34:46;101826.13;;;11.51;57.84
26697;BME280;14312;52.614;13.496;2023-04-19T07:37:32;101814.72;;;11.62;57.05
26697;BME280;14312;52.614;13.496;2023-04-19T07:40:18;101815.28;;;11.70;56.91
26697;BME280;14312;52.614;13.496;2023-04-19T07:43:04;101813.75;;;11.81;57.09
26697;BME280;14312;52.614;13.496;2023-04-19T07:45:51;101808.97;;;11.90;56.62
26697;BME280;14312;52.614;13.496;2023-04-19T07:48:38;101808.47;;;11.99;56.44
26697;BME280;14312;52.614;13.496;2023-04-19T07:51:24;101812.47;;;12.08;56.22
26697;BME280;14312;52.614;13.496;2023-04-19T07:54:10;101785.69;;;12.15;55.88
26697;BME280;14312;52.614;13.496;2023-04-19T07:56:57;101796.25;;;12.28;55.61
26697;BME280;14312;52.614;13.496;2023-04-19T07:59:43;101793.25;;;12.36;55.21
26697;BME280;14312;52.614;13.496;2023-04-19T08:02:29;101789.47;;;12.44;54.01
26697;BME280;14312;52.614;13.496;2023-04-19T08:05:16;101794.75;;;12.50;54.45
26697;BME280;14312;52.614;13.496;2023-04-19T08:08:02;101776.19;;;12.55;54.51
26697;BME280;14312;52.614;13.496;2023-04-19T08:10:48;101781.00;;;12.65;54.58
26697;BME280;14312;52.614;13.496;2023-04-19T08:13:34;101782.94;;;12.76;54.78
26697;BME280;14312;52.614;13.496;2023-04-19T08:16:20;101781.69;;;12.90;54.52
26697;BME280;14312;52.614;13.496;2023-04-19T08:19:06;101789.97;;;13.01;54.03
26697;BME280;14312;52.614;13.496;2023-04-19T08:21:52;101772.56;;;13.10;53.72
26697;BME280;14312;52.614;13.496;2023-04-19T08:24:38;101772.06;;;13.19;53.90
26697;BME280;14312;52.614;13.496;2023-04-19T08:27:24;101788.34;;;13.29;54.10
26697;BME280;14312;52.614;13.496;2023-04-19T08:30:12;101780.38;;;13.41;54.11
26697;BME280;14312;52.614;13.496;2023-04-19T08:32:58;101772.13;;;13.54;53.86
26697;BME280;14312;52.614;13.496;2023-04-19T08:35:44;101779.94;;;13.67;54.12
26697;BME280;14312;52.614;13.496;2023-04-19T08:38:30;101778.41;;;13.83;54.32
26697;BME280;14312;52.614;13.496;2023-04-19T08:41:17;101769.78;;;14.04;53.60
26697;BME280;14312;52.614;13.496;2023-04-19T08:44:04;101756.47;;;14.21;53.34
26697;BME280;14312;52.614;13.496;2023-04-19T08:46:51;101761.72;;;14.39;53.75
26697;BME280;14312;52.614;13.496;2023-04-19T08:49:38;101749.75;;;14.59;53.04
26697;BME280;14312;52.614;13.496;2023-04-19T08:52:26;101757.63;;;14.77;52.16
26697;BME280;14312;52.614;13.496;2023-04-19T08:55:14;101749.97;;;14.85;50.81
26697;BME280;14312;52.614;13.496;2023-04-19T08:58:02;101747.66;;;14.89;50.47
26697;BME280;14312;52.614;13.496;2023-04-19T09:00:49;101742.84;;;14.91;51.21
26697;BME280;14312;52.614;13.496;2023-04-19T09:03:34;101731.16;;;14.97;50.54
26697;BME280;14312;52.614;13.496;2023-04-19T09:06:21;101749.63;;;15.10;51.09
26697;BME280;14312;52.614;13.496;2023-04-19T09:09:18;101729.78;;;15.28;51.07
26697;BME280;14312;52.614;13.496;2023-04-19T09:12:14;101743.78;;;15.47;50.57
26697;BME280;14312;52.614;13.496;2023-04-19T09:15:03;101727.44;;;15.65;50.49
26697;BME280;14312;52.614;13.496;2023-04-19T09:18:04;101731.63;;;15.78;49.32
26697;BME280;14312;52.614;13.496;2023-04-19T09:20:51;101727.66;;;15.80;49.07
26697;BME280;14312;52.614;13.496;2023-04-19T09:23:45;101717.16;;;15.79;47.54
26697;BME280;14312;52.614;13.496;2023-04-19T09:26:33;101708.97;;;15.69;47.30
26697;BME280;14312;52.614;13.496;2023-04-19T09:29:19;101718.19;;;15.56;47.77
26697;BME280;14312;52.614;13.496;2023-04-19T09:32:05;101707.91;;;15.53;48.16
26697;BME280;14312;52.614;13.496;2023-04-19T09:34:52;101692.63;;;15.53;48.24
26697;BME280;14312;52.614;13.496;2023-04-19T09:37:38;101699.09;;;15.57;47.97
26697;BME280;14312;52.614;13.496;2023-04-19T09:40:26;101687.13;;;15.65;48.09
26697;BME280;14312;52.614;13.496;2023-04-19T09:43:22;101688.34;;;15.74;47.57
26697;BME280;14312;52.614;13.496;2023-04-19T09:46:08;101688.97;;;15.81;47.81
26697;BME280;14312;52.614;13.496;2023-04-19T09:48:54;101680.78;;;15.93;47.20
26697;BME280;14312;52.614;13.496;2023-04-19T09:51:50;101686.78;;;16.00;47.43
26697;BME280;14312;52.614;13.496;2023-04-19T09:54:37;101676.97;;;16.11;47.30
26697;BME280;14312;52.614;13.496;2023-04-19T09:57:23;101676.78;;;16.17;47.24
26697;BME280;14312;52.614;13.496;2023-04-19T10:00:10;101666.66;;;16.24;47.27
26697;BME280;14312;52.614;13.496;2023-04-19T10:02:58;101671.38;;;16.39;47.77
26697;BME280;14312;52.614;13.496;2023-04-19T10:05:45;101669.91;;;16.53;46.79
26697;BME280;14312;52.614;13.496;2023-04-19T10:08:31;101664.66;;;16.63;46.53
26697;BME280;14312;52.614;13.496;2023-04-19T10:11:19;101667.41;;;16.68;45.76
26697;BME280;14312;52.614;13.496;2023-04-19T10:14:10;101660.69;;;16.71;46.13
26697;BME280;14312;52.614;13.496;2023-04-19T10:16:56;101666.34;;;16.69;45.86
26697;BME280;14312;52.614;13.496;2023-04-19T10:19:42;101667.41;;;16.68;45.17
26697;BME280;14312;52.614;13.496;2023-04-19T10:22:30;101673.81;;;16.62;44.48
26697;BME280;14312;52.614;13.496;2023-04-19T10:25:16;101663.72;;;16.53;44.65
26697;BME280;14312;52.614;13.496;2023-04-19T10:28:02;101667.19;;;16.48;45.13
26697;BME280;14312;52.614;13.496;2023-04-19T10:31:02;101667.19;;;16.48;44.60
26697;BME280;14312;52.614;13.496;2023-04-19T10:33:49;101666.38;;;16.48;45.48
26697;BME280;14312;52.614;13.496;2023-04-19T10:36:38;101668.28;;;16.52;45.59
26697;BME280;14312;52.614;13.496;2023-04-19T10:39:41;101664.31;;;16.60;45.44
26697;BME280;14312;52.614;13.496;2023-04-19T10:43:13;101657.31;;;16.59;44.79
26697;BME280;14312;52.614;13.496;2023-04-19T10:46:01;101657.53;;;16.52;45.28
26697;BME280;14312;52.614;13.496;2023-04-19T10:48:58;101646.75;;;16.52;45.01
26697;BME280;14312;52.614;13.496;2023-04-19T10:51:49;101644.09;;;16.57;45.51
26697;BME280;14312;52.614;13.496;2023-04-19T10:54:37;101650.94;;;16.65;46.28
26697;BME280;14312;52.614;13.496;2023-04-19T10:57:24;101647.00;;;16.77;46.19
26697;BME280;14312;52.614;13.496;2023-04-19T11:00:20;101645.50;;;16.92;45.17
26697;BME280;14312;52.614;13.496;2023-04-19T11:06:28;101635.41;;;17.04;44.95
26697;BME280;14312;52.614;13.496;2023-04-19T11:12:18;101637.06;;;17.10;45.00
26697;BME280;14312;52.614;13.496;2023-04-19T11:15:04;101628.53;;;17.23;45.09
26697;BME280;14312;52.614;13.496;2023-04-19T11:17:50;101608.63;;;17.34;44.44
26697;BME280;14312;52.614;13.496;2023-04-19T11:20:37;101617.84;;;17.38;44.33
26697;BME280;14312;52.614;13.496;2023-04-19T11:23:23;101613.00;;;17.40;44.20
26697;BME280;14312;52.614;13.496;2023-04-19T11:26:09;101617.31;;;17.41;43.50
26697;BME280;14312;52.614;13.496;2023-04-19T11:28:56;101618.34;;;17.35;42.83
26697;BME280;14312;52.614;13.496;2023-04-19T11:31:43;101620.94;;;17.20;42.98
26697;BME280;14312;52.614;13.496;2023-04-19T11:34:35;101614.94;;;17.08;43.21
26697;BME280;14312;52.614;13.496;2023-04-19T11:37:22;101618.59;;;16.92;42.97
26697;BME280;14312;52.614;13.496;2023-04-19T11:40:08;101613.34;;;16.75;43.28
26697;BME280;14312;52.614;13.496;2023-04-19T11:42:58;101603.84;;;16.62;43.54
26697;BME280;14312;52.614;13.496;2023-04-19T11:45:45;101597.22;;;16.48;43.76
26697;BME280;14312;52.614;13.496;2023-04-19T11:48:31;101599.81;;;16.38;43.53
26697;BME280;14312;52.614;13.496;2023-04-19T11:51:18;101602.38;;;16.28;43.91
26697;BME280;14312;52.614;13.496;2023-04-19T11:54:11;101593.41;;;16.17;43.40
26697;BME280;14312;52.614;13.496;2023-04-19T11:57:02;101595.50;;;16.10;43.19
26697;BME280;14312;52.614;13.496;2023-04-19T12:00:08;101589.50;;;16.03;43.56
26697;BME280;14312;52.614;13.496;2023-04-19T12:02:56;101584.31;;;15.96;44.36
26697;BME280;14312;52.614;13.496;2023-04-19T12:08:46;101573.03;;;15.99;43.31
26697;BME280;14312;52.614;13.496;2023-04-19T12:11:44;101573.25;;;15.93;43.77
26697;BME280;14312;52.614;13.496;2023-04-19T12:14:36;101575.63;;;15.89;43.35
26697;BME280;14312;52.614;13.496;2023-04-19T12:17:22;101557.84;;;15.83;43.28
26697;BME280;14312;52.614;13.496;2023-04-19T12:20:09;101558.31;;;15.80;43.77
26697;BME280;14312;52.614;13.496;2023-04-19T12:22:55;101554.59;;;15.81;44.29
26697;BME280;14312;52.614;13.496;2023-04-19T12:25:46;101549.78;;;15.83;43.95
26697;BME280;14312;52.614;13.496;2023-04-19T12:28:33;101535.19;;;15.79;43.60
26697;BME280;14312;52.614;13.496;2023-04-19T12:31:22;101545.13;;;15.79;43.86
26697;BME280;14312;52.614;13.496;2023-04-19T12:34:20;101537.84;;;15.74;43.78
26697;BME280;14312;52.614;13.496;2023-04-19T12:37:15;101548.09;;;15.77;44.21
26697;BME280;14312;52.614;13.496;2023-04-19T12:40:01;101540.03;;;15.77;44.33
26697;BME280;14312;52.614;13.496;2023-04-19T12:42:53;101538.44;;;15.81;44.99
26697;BME280;14312;52.614;13.496;2023-04-19T12:45:40;101528.94;;;15.95;45.15
26697;BME280;14312;52.614;13.496;2023-04-19T12:48:27;101514.63;;;16.17;45.45
26697;BME280;14312;52.614;13.496;2023-04-19T12:51:21;101519.72;;;16.50;44.75
26697;BME280;14312;52.614;13.496;2023-04-19T12:54:14;101505.97;;;16.78;45.04
26697;BME280;14312;52.614;13.496;2023-04-19T12:57:00;101489.97;;;17.04;44.86
26697;BME280;14312;52.614;13.496;2023-04-19T12:59:46;101507.38;;;17.43;43.81
26697;BME280;14312;52.614;13.496;2023-04-19T13:02:33;101486.44;;;17.60;42.13
26697;BME280;14312;52.614;13.496;2023-04-19T13:05:19;101500.50;;;17.73;42.52
26697;BME280;14312;52.614;13.496;2023-04-19T13:08:05;101490.53;;;17.78;42.48
26697;BME280;14312;52.614;13.496;2023-04-19T13:10:51;101484.88;;;17.80;42.02
26697;BME280;14312;52.614;13.496;2023-04-19T13:13:37;101473.56;;;17.83;41.95
26697;BME280;14312;52.614;13.496;2023-04-19T13:16:23;101481.09;;;17.81;41.85
26697;BME280;14312;52.614;13.496;2023-04-19T13:19:09;101486.50;;;17.81;41.88
26697;BME280;14312;52.614;13.496;2023-04-19T13:21:55;101479.75;;;17.83;41.43
26697;BME280;14312;52.614;13.496;2023-04-19T13:24:42;101472.75;;;17.82;41.37
26697;BME280;14312;52.614;13.496;2023-04-19T13:27:27;101475.16;;;17.84;41.30
26697;BME280;14312;52.614;13.496;2023-04-19T13:30:14;101486.50;;;17.81;40.96
26697;BME280;14312;52.614;13.496;2023-04-19T13:33:00;101489.16;;;17.66;40.92
26697;BME280;14312;52.614;13.496;2023-04-19T13:35:46;101470.75;;;17.47;41.03
26697;BME280;14312;52.614;13.496;2023-04-19T13:38:32;101470.19;;;17.40;41.16
26697;BME280;14312;52.614;13.496;2023-04-19T13:41:18;101461.50;;;17.18;40.87
26697;BME280;14312;52.614;13.496;2023-04-19T13:44:04;101461.97;;;17.05;40.64
26697;BME280;14312;52.614;13.496;2023-04-19T13:46:50;101471.03;;;16.83;40.95
26697;BME280;14312;52.614;13.496;2023-04-19T13:49:36;101467.94;;;16.65;40.70
26697;BME280;14312;52.614;13.496;2023-04-19T13:52:22;101455.59;;;16.37;40.91
26697;BME280;14312;52.614;13.496;2023-04-19T13:55:08;101461.94;;;16.21;41.27
26697;BME280;14312;52.614;13.496;2023-04-19T13:57:54;101458.00;;;16.01;41.39
26697;BME280;14312;52.614;13.496;2023-04-19T14:00:40;101451.94;;;15.84;41.93
26697;BME280;14312;52.614;13.496;2023-04-19T14:03:26;101430.22;;;15.64;41.86
26697;BME280;14312;52.614;13.496;2023-04-19T14:06:12;101451.13;;;15.57;42.20
26697;BME280;14312;52.614;13.496;2023-04-19T14:08:58;101442.13;;;15.46;42.78
26697;BME280;14312;52.614;13.496;2023-04-19T14:11:44;101452.09;;;15.51;43.00
26697;BME280;14312;52.614;13.496;2023-04-19T14:14:30;101435.00;;;15.57;43.19
26697;BME280;14312;52.614;13.496;2023-04-19T14:17:16;101429.69;;;15.62;43.28
26697;BME280;14312;52.614;13.496;2023-04-19T14:20:03;101426.03;;;15.73;43.16
26697;BME280;14312;52.614;13.496;2023-04-19T14:22:49;101419.16;;;15.87;43.25
26697;BME280;14312;52.614;13.496;2023-04-19T14:25:35;101422.50;;;15.99;42.79
26697;BME280;14312;52.614;13.496;2023-04-19T14:28:21;101424.66;;;15.97;42.82
26697;BME280;14312;52.614;13.496;2023-04-19T14:31:07;101419.16;;;15.87;42.80
26697;BME280;14312;52.614;13.496;2023-04-19T14:33:53;101408.34;;;15.77;42.75
26697;BME280;14312;52.614;13.496;2023-04-19T14:36:39;101427.09;;;15.72;42.50